sensor_id;sensor_type;location;lat;lon;timestamp;temperature;humidity
10312;DHT22;5201;48.776;9.128;2022-11-13T00:01:08;8.80;99.90
10312;DHT22;5201;48.776;9.128;2022-11-13T00:03:33;8.70;99.90
10312;DHT22;5201;48.776;9.128;2022-11-13T00:06:00;8.80;99.90
10312;DHT22;5201;48.776;9.128;2022-11-13T00:08:26;8.70;99.90
10312;DHT22;5201;48.776;9.128;2022-11-13T00:10:59;8.70;99.90
10312;DHT22;5201;48.776;9.128;2022-11-13T00:13:24;8.70;99.90
10312;DHT22;5201;48.776;9.128;2022-11-13T00:16:04;8.70;99.90
10312;DHT22;5201;48.776;9.128;2022-11-13T00:18:33;8.80;99.90
10312;DHT22;5201;48.776;9.128;2022-11-13T00:21:12;8.40;99.90
10312;DHT22;5201;48.776;9.128;2022-11-13T00:23:38;8.40;99.90
10312;DHT22;5201;48.776;9.128;2022-11-13T00:26:05;8.50;99.90
10312;DHT22;5201;48.776;9.128;2022-11-13T00:28:31;8.50;99.90
10312;DHT22;5201;48.776;9.128;2022-11-13T00:30:58;8.60;99.90
10312;DHT22;5201;48.776;9.128;2022-11-13T00:33:24;8.60;99.90
10312;DHT22;5201;48.776;9.128;2022-11-13T00:35:49;8.30;99.90
10312;DHT22;5201;48.776;9.128;2022-11-13T00:38:15;8.20;99.90
10312;DHT22;5201;48.776;9.128;2022-11-13T00:40:40;8.30;99.90
10312;DHT22;5201;48.776;9.128;2022-11-13T00:43:06;8.40;99.90
10312;DHT22;5201;48.776;9.128;2022-11-13T00:45:31;8.20;99.90
10312;DHT22;5201;48.776;9.128;2022-11-13T00:47:57;8.20;99.90
10312;DHT22;5201;48.776;9.128;2022-11-13T00:50:22;8.40;99.90
10312;DHT22;5201;48.776;9.128;2022-11-13T00:52:48;8.50;99.90
10312;DHT22;5201;48.776;9.128;2022-11-13T00:55:13;9.50;99.90
10312;DHT22;5201;48.776;9.128;2022-11-13T00:57:39;8.20;99.90
10312;DHT22;5201;48.776;9.128;2022-11-13T01:00:05;7.80;99.90
10312;DHT22;5201;48.776;9.128;2022-11-13T01:02:31;7.50;99.90
10312;DHT22;5201;48.776;9.128;2022-11-13T01:04:57;7.40;99.90
10312;DHT22;5201;48.776;9.128;2022-11-13T01:07:22;8.20;99.90
10312;DHT22;5201;48.776;9.128;2022-11-13T01:09:51;7.90;99.90
10312;DHT22;5201;48.776;9.128;2022-11-13T01:12:16;8.00;99.90
10312;DHT22;5201;48.776;9.128;2022-11-13T01:14:42;8.10;99.90
10312;DHT22;5201;48.776;9.128;2022-11-13T01:17:07;8.10;99.90
10312;DHT22;5201;48.776;9.128;2022-11-13T01:19:33;8.00;99.90
10312;DHT22;5201;48.776;9.128;2022-11-13T01:21:59;8.00;99.90
10312;DHT22;5201;48.776;9.128;2022-11-13T01:24:24;7.90;99.90
10312;DHT22;5201;48.776;9.128;2022-11-13T01:26:50;7.90;99.90
10312;DHT22;5201;48.776;9.128;2022-11-13T01:29:15;7.90;99.90
10312;DHT22;5201;48.776;9.128;2022-11-13T01:31:41;7.80;99.90
10312;DHT22;5201;48.776;9.128;2022-11-13T01:34:06;7.90;99.90
10312;DHT22;5201;48.776;9.128;2022-11-13T01:36:32;7.60;99.90
10312;DHT22;5201;48.776;9.128;2022-11-13T01:38:57;7.50;99.90
10312;DHT22;5201;48.776;9.128;2022-11-13T01:41:29;7.60;99.90
10312;DHT22;5201;48.776;9.128;2022-11-13T01:43:55;7.30;99.90
10312;DHT22;5201;48.776;9.128;2022-11-13T01:46:32;7.60;99.90
10312;DHT22;5201;48.776;9.128;2022-11-13T01:49:02;7.80;99.90
10312;DHT22;5201;48.776;9.128;2022-11-13T01:54:00;8.00;99.90
10312;DHT22;5201;48.776;9.128;2022-11-13T01:56:26;8.00;99.90
10312;DHT22;5201;48.776;9.128;2022-11-13T01:58:56;8.00;99.90
10312;DHT22;5201;48.776;9.128;2022-11-13T02:01:22;8.00;99.90
10312;DHT22;5201;48.776;9.128;2022-11-13T02:03:48;8.00;99.90
10312;DHT22;5201;48.776;9.128;2022-11-13T02:06:14;8.10;99.90
10312;DHT22;5201;48.776;9.128;2022-11-13T02:08:40;8.10;99.90
10312;DHT22;5201;48.776;9.128;2022-11-13T02:11:07;8.10;99.90
10312;DHT22;5201;48.776;9.128;2022-11-13T02:13:34;8.10;99.90
10312;DHT22;5201;48.776;9.128;2022-11-13T02:16:02;8.10;99.90
10312;DHT22;5201;48.776;9.128;2022-11-13T02:18:29;8.00;99.90
10312;DHT22;5201;48.776;9.128;2022-11-13T02:23:46;8.10;99.90
10312;DHT22;5201;48.776;9.128;2022-11-13T02:26:12;8.10;99.90
10312;DHT22;5201;48.776;9.128;2022-11-13T02:28:38;8.10;99.90
10312;DHT22;5201;48.776;9.128;2022-11-13T02:31:08;8.10;99.90
10312;DHT22;5201;48.776;9.128;2022-11-13T02:33:35;8.10;99.90
10312;DHT22;5201;48.776;9.128;2022-11-13T02:36:00;8.00;99.90
10312;DHT22;5201;48.776;9.128;2022-11-13T02:38:26;7.80;99.90
10312;DHT22;5201;48.776;9.128;2022-11-13T02:40:52;7.70;99.90
10312;DHT22;5201;48.776;9.128;2022-11-13T02:43:18;7.70;99.90
10312;DHT22;5201;48.776;9.128;2022-11-13T02:45:43;7.70;99.90
10312;DHT22;5201;48.776;9.128;2022-11-13T02:48:09;7.60;99.90
10312;DHT22;5201;48.776;9.128;2022-11-13T02:50:35;7.40;99.90
10312;DHT22;5201;48.776;9.128;2022-11-13T02:53:02;7.60;99.90
10312;DHT22;5201;48.776;9.128;2022-11-13T02:55:28;7.50;99.90
10312;DHT22;5201;48.776;9.128;2022-11-13T02:57:53;7.40;99.90
10312;DHT22;5201;48.776;9.128;2022-11-13T03:00:19;10.10;99.90
10312;DHT22;5201;48.776;9.128;2022-11-13T03:02:44;7.40;99.90
10312;DHT22;5201;48.776;9.128;2022-11-13T03:05:10;7.50;99.90
10312;DHT22;5201;48.776;9.128;2022-11-13T03:07:36;7.50;99.90
10312;DHT22;5201;48.776;9.128;2022-11-13T03:10:01;7.40;99.90
10312;DHT22;5201;48.776;9.128;2022-11-13T03:12:27;7.50;99.90
10312;DHT22;5201;48.776;9.128;2022-11-13T03:14:53;7.50;99.90
10312;DHT22;5201;48.776;9.128;2022-11-13T03:17:18;7.50;99.90
10312;DHT22;5201;48.776;9.128;2022-11-13T03:19:44;7.30;99.90
10312;DHT22;5201;48.776;9.128;2022-11-13T03:22:09;7.20;99.90
10312;DHT22;5201;48.776;9.128;2022-11-13T03:24:35;7.10;99.90
10312;DHT22;5201;48.776;9.128;2022-11-13T03:27:00;6.80;99.90
10312;DHT22;5201;48.776;9.128;2022-11-13T03:29:26;6.90;99.90
10312;DHT22;5201;48.776;9.128;2022-11-13T03:31:52;7.10;99.90
10312;DHT22;5201;48.776;9.128;2022-11-13T03:34:17;7.10;99.90
10312;DHT22;5201;48.776;9.128;2022-11-13T03:36:43;7.00;99.90
10312;DHT22;5201;48.776;9.128;2022-11-13T03:39:08;6.80;99.90
10312;DHT22;5201;48.776;9.128;2022-11-13T03:41:34;6.40;99.90
10312;DHT22;5201;48.776;9.128;2022-11-13T03:43:59;6.20;99.90
10312;DHT22;5201;48.776;9.128;2022-11-13T03:46:25;6.50;99.90
10312;DHT22;5201;48.776;9.128;2022-11-13T03:48:51;6.10;99.90
10312;DHT22;5201;48.776;9.128;2022-11-13T03:51:16;6.20;99.90
10312;DHT22;5201;48.776;9.128;2022-11-13T03:53:42;6.30;99.90
10312;DHT22;5201;48.776;9.128;2022-11-13T03:56:07;6.10;99.90
10312;DHT22;5201;48.776;9.128;2022-11-13T03:58:33;6.40;99.90
10312;DHT22;5201;48.776;9.128;2022-11-13T04:00:59;6.50;99.90
10312;DHT22;5201;48.776;9.128;2022-11-13T04:03:24;6.30;99.90
10312;DHT22;5201;48.776;9.128;2022-11-13T04:05:50;5.90;99.90
10312;DHT22;5201;48.776;9.128;2022-11-13T04:08:16;5.70;99.90
10312;DHT22;5201;48.776;9.128;2022-11-13T04:10:42;5.90;99.90
10312;DHT22;5201;48.776;9.128;2022-11-13T04:13:08;5.90;99.90
10312;DHT22;5201;48.776;9.128;2022-11-13T04:15:34;6.00;99.90
10312;DHT22;5201;48.776;9.128;2022-11-13T04:17:59;6.00;99.90
10312;DHT22;5201;48.776;9.128;2022-11-13T04:20:25;5.80;99.90
10312;DHT22;5201;48.776;9.128;2022-11-13T04:22:57;5.70;99.90
10312;DHT22;5201;48.776;9.128;2022-11-13T04:25:23;5.50;99.90
10312;DHT22;5201;48.776;9.128;2022-11-13T04:27:50;5.70;99.90
10312;DHT22;5201;48.776;9.128;2022-11-13T04:30:16;5.80;99.90
10312;DHT22;5201;48.776;9.128;2022-11-13T04:32:42;5.70;99.90
10312;DHT22;5201;48.776;9.128;2022-11-13T04:35:08;5.40;99.90
10312;DHT22;5201;48.776;9.128;2022-11-13T04:37:33;5.70;99.90
10312;DHT22;5201;48.776;9.128;2022-11-13T04:39:59;5.60;99.90
10312;DHT22;5201;48.776;9.128;2022-11-13T04:42:24;5.30;99.90
10312;DHT22;5201;48.776;9.128;2022-11-13T04:45:08;5.20;99.90
10312;DHT22;5201;48.776;9.128;2022-11-13T04:47:34;4.90;99.90
10312;DHT22;5201;48.776;9.128;2022-11-13T04:50:00;4.90;99.90
10312;DHT22;5201;48.776;9.128;2022-11-13T04:52:26;5.10;99.90
10312;DHT22;5201;48.776;9.128;2022-11-13T04:54:53;5.20;99.90
10312;DHT22;5201;48.776;9.128;2022-11-13T04:57:18;5.20;99.90
10312;DHT22;5201;48.776;9.128;2022-11-13T04:59:44;5.20;99.90
10312;DHT22;5201;48.776;9.128;2022-11-13T05:02:10;5.20;99.90
10312;DHT22;5201;48.776;9.128;2022-11-13T05:04:36;5.40;99.90
10312;DHT22;5201;48.776;9.128;2022-11-13T05:07:01;5.50;99.90
10312;DHT22;5201;48.776;9.128;2022-11-13T05:09:27;5.60;99.90
10312;DHT22;5201;48.776;9.128;2022-11-13T05:11:52;5.60;99.90
10312;DHT22;5201;48.776;9.128;2022-11-13T05:14:18;5.50;99.90
10312;DHT22;5201;48.776;9.128;2022-11-13T05:16:43;5.60;99.90
10312;DHT22;5201;48.776;9.128;2022-11-13T05:19:09;5.40;99.90
10312;DHT22;5201;48.776;9.128;2022-11-13T05:21:36;5.50;99.90
10312;DHT22;5201;48.776;9.128;2022-11-13T05:24:03;5.40;99.90
10312;DHT22;5201;48.776;9.128;2022-11-13T05:26:29;5.30;99.90
10312;DHT22;5201;48.776;9.128;2022-11-13T05:28:59;6.60;99.90
10312;DHT22;5201;48.776;9.128;2022-11-13T05:31:25;5.10;99.90
10312;DHT22;5201;48.776;9.128;2022-11-13T05:33:51;5.40;99.90
10312;DHT22;5201;48.776;9.128;2022-11-13T05:36:17;5.00;99.90
10312;DHT22;5201;48.776;9.128;2022-11-13T05:38:43;5.10;99.90
10312;DHT22;5201;48.776;9.128;2022-11-13T05:41:17;5.10;99.90
10312;DHT22;5201;48.776;9.128;2022-11-13T05:43:44;4.90;99.90
10312;DHT22;5201;48.776;9.128;2022-11-13T05:46:17;5.20;99.90
10312;DHT22;5201;48.776;9.128;2022-11-13T05:48:43;5.20;99.90
10312;DHT22;5201;48.776;9.128;2022-11-13T05:51:10;4.90;99.90
10312;DHT22;5201;48.776;9.128;2022-11-13T05:53:37;4.80;99.90
10312;DHT22;5201;48.776;9.128;2022-11-13T05:56:11;4.90;99.90
10312;DHT22;5201;48.776;9.128;2022-11-13T05:58:38;4.60;99.90
10312;DHT22;5201;48.776;9.128;2022-11-13T06:03:30;5.10;99.90
10312;DHT22;5201;48.776;9.128;2022-11-13T06:05:57;5.10;99.90
10312;DHT22;5201;48.776;9.128;2022-11-13T06:08:23;5.00;99.90
10312;DHT22;5201;48.776;9.128;2022-11-13T06:10:48;5.20;99.90
10312;DHT22;5201;48.776;9.128;2022-11-13T06:13:14;5.40;99.90
10312;DHT22;5201;48.776;9.128;2022-11-13T06:15:39;5.10;99.90
10312;DHT22;5201;48.776;9.128;2022-11-13T06:18:05;5.30;99.90
10312;DHT22;5201;48.776;9.128;2022-11-13T06:20:36;5.40;99.90
10312;DHT22;5201;48.776;9.128;2022-11-13T06:23:02;5.10;99.90
10312;DHT22;5201;48.776;9.128;2022-11-13T06:25:27;4.90;99.90
10312;DHT22;5201;48.776;9.128;2022-11-13T06:27:53;4.90;99.90
10312;DHT22;5201;48.776;9.128;2022-11-13T06:30:19;5.00;99.90
10312;DHT22;5201;48.776;9.128;2022-11-13T06:32:51;5.00;99.90
10312;DHT22;5201;48.776;9.128;2022-11-13T06:35:17;5.00;99.90
10312;DHT22;5201;48.776;9.128;2022-11-13T06:37:42;5.60;99.90
10312;DHT22;5201;48.776;9.128;2022-11-13T06:40:08;5.20;99.90
10312;DHT22;5201;48.776;9.128;2022-11-13T06:42:34;5.00;99.90
10312;DHT22;5201;48.776;9.128;2022-11-13T06:45:00;4.90;99.90
10312;DHT22;5201;48.776;9.128;2022-11-13T06:47:26;5.10;99.90
10312;DHT22;5201;48.776;9.128;2022-11-13T06:49:52;5.10;99.90
10312;DHT22;5201;48.776;9.128;2022-11-13T06:52:18;5.20;99.90
10312;DHT22;5201;48.776;9.128;2022-11-13T06:54:43;5.30;99.90
10312;DHT22;5201;48.776;9.128;2022-11-13T06:57:09;5.30;99.90
10312;DHT22;5201;48.776;9.128;2022-11-13T06:59:34;5.10;99.90
10312;DHT22;5201;48.776;9.128;2022-11-13T07:02:01;4.80;99.90
10312;DHT22;5201;48.776;9.128;2022-11-13T07:04:26;4.60;99.90
10312;DHT22;5201;48.776;9.128;2022-11-13T07:06:52;4.40;99.90
10312;DHT22;5201;48.776;9.128;2022-11-13T07:09:18;4.30;99.90
10312;DHT22;5201;48.776;9.128;2022-11-13T07:11:43;4.30;99.90
10312;DHT22;5201;48.776;9.128;2022-11-13T07:14:12;4.30;99.90
10312;DHT22;5201;48.776;9.128;2022-11-13T07:16:38;4.10;99.90
10312;DHT22;5201;48.776;9.128;2022-11-13T07:19:04;4.00;99.90
10312;DHT22;5201;48.776;9.128;2022-11-13T07:21:30;4.00;99.90
10312;DHT22;5201;48.776;9.128;2022-11-13T07:23:56;4.20;99.90
10312;DHT22;5201;48.776;9.128;2022-11-13T07:26:21;4.20;99.90
10312;DHT22;5201;48.776;9.128;2022-11-13T07:28:48;4.20;99.90
10312;DHT22;5201;48.776;9.128;2022-11-13T07:31:15;4.20;99.90
10312;DHT22;5201;48.776;9.128;2022-11-13T07:33:41;4.30;99.90
10312;DHT22;5201;48.776;9.128;2022-11-13T07:36:07;4.40;99.90
10312;DHT22;5201;48.776;9.128;2022-11-13T07:38:33;4.60;99.90
10312;DHT22;5201;48.776;9.128;2022-11-13T07:40:58;4.70;99.90
10312;DHT22;5201;48.776;9.128;2022-11-13T07:43:24;4.50;99.90
10312;DHT22;5201;48.776;9.128;2022-11-13T07:45:50;4.40;99.90
10312;DHT22;5201;48.776;9.128;2022-11-13T07:48:19;4.50;99.90
10312;DHT22;5201;48.776;9.128;2022-11-13T07:50:46;4.30;99.90
10312;DHT22;5201;48.776;9.128;2022-11-13T07:53:11;4.30;99.90
10312;DHT22;5201;48.776;9.128;2022-11-13T07:55:37;4.20;99.90
10312;DHT22;5201;48.776;9.128;2022-11-13T07:58:04;4.20;99.90
10312;DHT22;5201;48.776;9.128;2022-11-13T08:00:31;4.40;99.90
10312;DHT22;5201;48.776;9.128;2022-11-13T08:02:57;4.40;99.90
10312;DHT22;5201;48.776;9.128;2022-11-13T08:05:23;4.50;99.90
10312;DHT22;5201;48.776;9.128;2022-11-13T08:07:50;4.60;99.90
10312;DHT22;5201;48.776;9.128;2022-11-13T08:10:17;4.40;99.90
10312;DHT22;5201;48.776;9.128;2022-11-13T08:12:43;5.90;99.90
10312;DHT22;5201;48.776;9.128;2022-11-13T08:15:10;4.50;99.90
10312;DHT22;5201;48.776;9.128;2022-11-13T08:17:36;4.60;99.90
10312;DHT22;5201;48.776;9.128;2022-11-13T08:20:01;4.60;99.90
10312;DHT22;5201;48.776;9.128;2022-11-13T08:22:29;4.60;99.90
10312;DHT22;5201;48.776;9.128;2022-11-13T08:24:55;4.50;99.90
10312;DHT22;5201;48.776;9.128;2022-11-13T08:27:21;4.50;99.90
10312;DHT22;5201;48.776;9.128;2022-11-13T08:29:49;4.50;99.90
10312;DHT22;5201;48.776;9.128;2022-11-13T08:32:16;4.50;99.90
10312;DHT22;5201;48.776;9.128;2022-11-13T08:34:41;4.50;99.90
10312;DHT22;5201;48.776;9.128;2022-11-13T08:37:07;4.50;99.90
10312;DHT22;5201;48.776;9.128;2022-11-13T08:39:33;4.40;99.90
10312;DHT22;5201;48.776;9.128;2022-11-13T08:42:02;4.60;99.90
10312;DHT22;5201;48.776;9.128;2022-11-13T08:44:28;5.30;99.90
10312;DHT22;5201;48.776;9.128;2022-11-13T08:46:54;4.90;99.90
10312;DHT22;5201;48.776;9.128;2022-11-13T08:49:20;5.00;99.90
10312;DHT22;5201;48.776;9.128;2022-11-13T08:51:45;5.10;99.90
10312;DHT22;5201;48.776;9.128;2022-11-13T08:54:11;5.10;99.90
10312;DHT22;5201;48.776;9.128;2022-11-13T08:56:37;5.10;99.90
10312;DHT22;5201;48.776;9.128;2022-11-13T08:59:02;4.80;99.90
10312;DHT22;5201;48.776;9.128;2022-11-13T09:01:28;5.00;99.90
10312;DHT22;5201;48.776;9.128;2022-11-13T09:03:53;4.90;99.90
10312;DHT22;5201;48.776;9.128;2022-11-13T09:06:19;5.00;99.90
10312;DHT22;5201;48.776;9.128;2022-11-13T09:08:45;5.10;99.90
10312;DHT22;5201;48.776;9.128;2022-11-13T09:11:10;5.20;99.90
10312;DHT22;5201;48.776;9.128;2022-11-13T09:13:36;5.30;99.90
10312;DHT22;5201;48.776;9.128;2022-11-13T09:16:02;5.40;99.90
10312;DHT22;5201;48.776;9.128;2022-11-13T09:18:28;5.40;99.90
10312;DHT22;5201;48.776;9.128;2022-11-13T09:20:54;5.30;99.90
10312;DHT22;5201;48.776;9.128;2022-11-13T09:23:20;5.40;99.90
10312;DHT22;5201;48.776;9.128;2022-11-13T09:25:46;5.50;99.90
10312;DHT22;5201;48.776;9.128;2022-11-13T09:28:11;5.60;99.90
10312;DHT22;5201;48.776;9.128;2022-11-13T09:30:38;5.60;99.90
10312;DHT22;5201;48.776;9.128;2022-11-13T09:33:05;5.70;99.90
10312;DHT22;5201;48.776;9.128;2022-11-13T09:35:31;5.80;99.90
10312;DHT22;5201;48.776;9.128;2022-11-13T09:38:09;5.70;99.90
10312;DHT22;5201;48.776;9.128;2022-11-13T09:40:40;5.60;99.90
10312;DHT22;5201;48.776;9.128;2022-11-13T09:45:45;5.90;99.90
10312;DHT22;5201;48.776;9.128;2022-11-13T09:50:48;6.10;99.90
10312;DHT22;5201;48.776;9.128;2022-11-13T09:53:15;6.10;99.90
10312;DHT22;5201;48.776;9.128;2022-11-13T09:55:53;6.20;99.90
10312;DHT22;5201;48.776;9.128;2022-11-13T09:58:56;6.40;99.90
10312;DHT22;5201;48.776;9.128;2022-11-13T10:01:39;6.40;99.90
10312;DHT22;5201;48.776;9.128;2022-11-13T10:04:10;6.30;99.90
10312;DHT22;5201;48.776;9.128;2022-11-13T10:06:59;6.50;99.90
10312;DHT22;5201;48.776;9.128;2022-11-13T10:09:48;6.70;99.90
10312;DHT22;5201;48.776;9.128;2022-11-13T10:12:17;6.70;99.90
10312;DHT22;5201;48.776;9.128;2022-11-13T10:14:45;6.80;99.90
10312;DHT22;5201;48.776;9.128;2022-11-13T10:17:34;6.90;99.90
10312;DHT22;5201;48.776;9.128;2022-11-13T10:20:06;7.10;99.90
10312;DHT22;5201;48.776;9.128;2022-11-13T10:25:14;7.10;99.90
10312;DHT22;5201;48.776;9.128;2022-11-13T10:27:41;7.20;99.90
10312;DHT22;5201;48.776;9.128;2022-11-13T10:30:15;7.40;99.90
10312;DHT22;5201;48.776;9.128;2022-11-13T10:32:41;7.40;99.90
10312;DHT22;5201;48.776;9.128;2022-11-13T10:35:38;7.60;99.90
10312;DHT22;5201;48.776;9.128;2022-11-13T10:38:27;7.70;99.90
10312;DHT22;5201;48.776;9.128;2022-11-13T10:41:11;7.70;99.90
10312;DHT22;5201;48.776;9.128;2022-11-13T10:43:54;7.70;99.90
10312;DHT22;5201;48.776;9.128;2022-11-13T10:46:24;7.70;99.90
10312;DHT22;5201;48.776;9.128;2022-11-13T10:48:51;7.70;99.90
10312;DHT22;5201;48.776;9.128;2022-11-13T10:51:29;7.80;99.90
10312;DHT22;5201;48.776;9.128;2022-11-13T10:53:56;8.00;99.90
10312;DHT22;5201;48.776;9.128;2022-11-13T10:59:12;8.00;99.90
10312;DHT22;5201;48.776;9.128;2022-11-13T11:01:40;8.20;99.90
10312;DHT22;5201;48.776;9.128;2022-11-13T11:04:21;8.20;99.90
10312;DHT22;5201;48.776;9.128;2022-11-13T11:06:49;8.30;99.90
10312;DHT22;5201;48.776;9.128;2022-11-13T11:09:27;8.30;99.90
10312;DHT22;5201;48.776;9.128;2022-11-13T11:20:35;9.30;99.90
10312;DHT22;5201;48.776;9.128;2022-11-13T11:22:56;8.80;99.90
10312;DHT22;5201;48.776;9.128;2022-11-13T11:28:00;8.80;99.90
10312;DHT22;5201;48.776;9.128;2022-11-13T11:30:31;8.90;99.90
10312;DHT22;5201;48.776;9.128;2022-11-13T11:36:07;8.80;99.90
10312;DHT22;5201;48.776;9.128;2022-11-13T11:38:36;8.80;99.90
10312;DHT22;5201;48.776;9.128;2022-11-13T11:41:09;8.90;99.90
10312;DHT22;5201;48.776;9.128;2022-11-13T11:43:55;8.90;99.90
10312;DHT22;5201;48.776;9.128;2022-11-13T11:46:27;9.00;99.90
10312;DHT22;5201;48.776;9.128;2022-11-13T11:48:57;8.90;99.90
10312;DHT22;5201;48.776;9.128;2022-11-13T11:51:42;9.10;99.90
10312;DHT22;5201;48.776;9.128;2022-11-13T11:56:52;9.60;99.90
10312;DHT22;5201;48.776;9.128;2022-11-13T11:59:37;9.80;99.90
10312;DHT22;5201;48.776;9.128;2022-11-13T12:07:55;9.80;99.90
10312;DHT22;5201;48.776;9.128;2022-11-13T12:13:30;9.90;99.90
10312;DHT22;5201;48.776;9.128;2022-11-13T12:24:42;10.10;99.90
10312;DHT22;5201;48.776;9.128;2022-11-13T12:27:37;9.90;99.90
10312;DHT22;5201;48.776;9.128;2022-11-13T12:30:23;10.00;99.90
10312;DHT22;5201;48.776;9.128;2022-11-13T12:33:10;9.90;99.90
10312;DHT22;5201;48.776;9.128;2022-11-13T12:35:40;9.60;99.90
10312;DHT22;5201;48.776;9.128;2022-11-13T12:40:58;9.30;99.90
10312;DHT22;5201;48.776;9.128;2022-11-13T12:46:17;9.80;99.90
10312;DHT22;5201;48.776;9.128;2022-11-13T12:48:45;9.80;99.90
10312;DHT22;5201;48.776;9.128;2022-11-13T12:51:14;9.90;99.90
10312;DHT22;5201;48.776;9.128;2022-11-13T12:53:48;10.60;99.90
10312;DHT22;5201;48.776;9.128;2022-11-13T13:01:22;9.60;99.90
10312;DHT22;5201;48.776;9.128;2022-11-13T13:06:40;9.70;99.90
10312;DHT22;5201;48.776;9.128;2022-11-13T13:09:19;9.70;99.90
10312;DHT22;5201;48.776;9.128;2022-11-13T13:17:34;9.50;99.90
10312;DHT22;5201;48.776;9.128;2022-11-13T13:20:04;9.60;99.90
10312;DHT22;5201;48.776;9.128;2022-11-13T13:22:32;9.90;99.90
10312;DHT22;5201;48.776;9.128;2022-11-13T13:25:21;9.40;99.90
10312;DHT22;5201;48.776;9.128;2022-11-13T13:27:56;9.30;99.90
10312;DHT22;5201;48.776;9.128;2022-11-13T13:30:23;9.20;99.90
10312;DHT22;5201;48.776;9.128;2022-11-13T13:33:17;9.10;99.90
10312;DHT22;5201;48.776;9.128;2022-11-13T13:35:51;9.10;99.90
10312;DHT22;5201;48.776;9.128;2022-11-13T13:38:31;9.00;99.90
10312;DHT22;5201;48.776;9.128;2022-11-13T13:46:20;11.10;99.90
10312;DHT22;5201;48.776;9.128;2022-11-13T13:48:48;9.70;99.90
10312;DHT22;5201;48.776;9.128;2022-11-13T13:51:58;9.80;99.90
10312;DHT22;5201;48.776;9.128;2022-11-13T13:54:29;10.00;99.90
10312;DHT22;5201;48.776;9.128;2022-11-13T13:56:56;9.90;99.90
10312;DHT22;5201;48.776;9.128;2022-11-13T13:59:30;10.00;99.90
10312;DHT22;5201;48.776;9.128;2022-11-13T14:01:59;10.10;99.90
10312;DHT22;5201;48.776;9.128;2022-11-13T14:04:42;10.00;99.90
10312;DHT22;5201;48.776;9.128;2022-11-13T14:07:44;10.10;99.90
10312;DHT22;5201;48.776;9.128;2022-11-13T14:10:21;10.10;99.90
10312;DHT22;5201;48.776;9.128;2022-11-13T14:12:48;10.50;99.90
10312;DHT22;5201;48.776;9.128;2022-11-13T14:15:34;9.80;99.90
10312;DHT22;5201;48.776;9.128;2022-11-13T14:18:15;9.80;99.90
10312;DHT22;5201;48.776;9.128;2022-11-13T14:23:24;10.10;99.90
10312;DHT22;5201;48.776;9.128;2022-11-13T14:25:53;10.00;99.90
10312;DHT22;5201;48.776;9.128;2022-11-13T14:28:22;9.90;99.90
10312;DHT22;5201;48.776;9.128;2022-11-13T14:30:53;9.70;99.90
10312;DHT22;5201;48.776;9.128;2022-11-13T14:33:33;9.60;99.90
10312;DHT22;5201;48.776;9.128;2022-11-13T14:35:59;9.60;99.90
10312;DHT22;5201;48.776;9.128;2022-11-13T14:38:28;9.50;99.90
10312;DHT22;5201;48.776;9.128;2022-11-13T14:40:54;9.60;99.90
10312;DHT22;5201;48.776;9.128;2022-11-13T14:43:26;9.70;99.90
10312;DHT22;5201;48.776;9.128;2022-11-13T14:46:05;9.60;99.90
10312;DHT22;5201;48.776;9.128;2022-11-13T14:48:33;9.30;99.90
10312;DHT22;5201;48.776;9.128;2022-11-13T14:51:02;9.50;99.90
10312;DHT22;5201;48.776;9.128;2022-11-13T14:53:36;9.60;99.90
10312;DHT22;5201;48.776;9.128;2022-11-13T14:56:08;9.70;99.90
10312;DHT22;5201;48.776;9.128;2022-11-13T14:58:43;9.90;99.90
10312;DHT22;5201;48.776;9.128;2022-11-13T15:01:16;10.20;99.90
10312;DHT22;5201;48.776;9.128;2022-11-13T15:03:43;10.20;99.90
10312;DHT22;5201;48.776;9.128;2022-11-13T15:06:18;10.10;99.90
10312;DHT22;5201;48.776;9.128;2022-11-13T15:08:45;10.20;99.90
10312;DHT22;5201;48.776;9.128;2022-11-13T15:11:15;10.20;99.90
10312;DHT22;5201;48.776;9.128;2022-11-13T15:13:42;10.40;99.90
10312;DHT22;5201;48.776;9.128;2022-11-13T15:16:17;10.40;99.90
10312;DHT22;5201;48.776;9.128;2022-11-13T15:19:02;10.20;99.90
10312;DHT22;5201;48.776;9.128;2022-11-13T15:21:28;9.90;99.90
10312;DHT22;5201;48.776;9.128;2022-11-13T15:23:54;9.80;99.90
10312;DHT22;5201;48.776;9.128;2022-11-13T15:26:20;9.70;99.90
10312;DHT22;5201;48.776;9.128;2022-11-13T15:28:46;9.50;99.90
10312;DHT22;5201;48.776;9.128;2022-11-13T15:31:29;9.60;99.90
10312;DHT22;5201;48.776;9.128;2022-11-13T15:33:55;9.80;99.90
10312;DHT22;5201;48.776;9.128;2022-11-13T15:36:21;10.40;99.90
10312;DHT22;5201;48.776;9.128;2022-11-13T15:38:46;10.00;99.90
10312;DHT22;5201;48.776;9.128;2022-11-13T15:41:14;10.10;99.90
10312;DHT22;5201;48.776;9.128;2022-11-13T15:43:48;10.20;99.90
10312;DHT22;5201;48.776;9.128;2022-11-13T15:46:16;10.20;99.90
10312;DHT22;5201;48.776;9.128;2022-11-13T15:48:43;9.90;99.90
10312;DHT22;5201;48.776;9.128;2022-11-13T15:51:19;9.60;99.90
10312;DHT22;5201;48.776;9.128;2022-11-13T15:53:49;9.50;99.90
10312;DHT22;5201;48.776;9.128;2022-11-13T15:56:16;10.80;99.90
10312;DHT22;5201;48.776;9.128;2022-11-13T15:58:42;9.50;99.90
10312;DHT22;5201;48.776;9.128;2022-11-13T16:01:12;9.70;99.90
10312;DHT22;5201;48.776;9.128;2022-11-13T16:03:38;9.50;99.90
10312;DHT22;5201;48.776;9.128;2022-11-13T16:06:11;9.20;99.90
10312;DHT22;5201;48.776;9.128;2022-11-13T16:08:38;9.30;99.90
10312;DHT22;5201;48.776;9.128;2022-11-13T16:11:03;9.20;99.90
10312;DHT22;5201;48.776;9.128;2022-11-13T16:13:29;9.40;99.90
10312;DHT22;5201;48.776;9.128;2022-11-13T16:15:54;9.30;99.90
10312;DHT22;5201;48.776;9.128;2022-11-13T16:18:26;9.40;99.90
10312;DHT22;5201;48.776;9.128;2022-11-13T16:20:52;9.40;99.90
10312;DHT22;5201;48.776;9.128;2022-11-13T16:23:18;9.50;99.90
10312;DHT22;5201;48.776;9.128;2022-11-13T16:25:45;9.70;99.90
10312;DHT22;5201;48.776;9.128;2022-11-13T16:28:15;9.40;99.90
10312;DHT22;5201;48.776;9.128;2022-11-13T16:30:41;9.30;99.90
10312;DHT22;5201;48.776;9.128;2022-11-13T16:33:09;9.30;99.90
10312;DHT22;5201;48.776;9.128;2022-11-13T16:35:35;9.40;99.90
10312;DHT22;5201;48.776;9.128;2022-11-13T16:38:02;9.30;99.90
10312;DHT22;5201;48.776;9.128;2022-11-13T16:40:29;9.30;99.90
10312;DHT22;5201;48.776;9.128;2022-11-13T16:42:55;9.00;99.90
10312;DHT22;5201;48.776;9.128;2022-11-13T16:45:21;8.80;99.90
10312;DHT22;5201;48.776;9.128;2022-11-13T16:47:47;9.50;99.90
10312;DHT22;5201;48.776;9.128;2022-11-13T16:50:20;9.20;99.90
10312;DHT22;5201;48.776;9.128;2022-11-13T16:52:45;9.10;99.90
10312;DHT22;5201;48.776;9.128;2022-11-13T16:55:11;9.10;99.90
10312;DHT22;5201;48.776;9.128;2022-11-13T16:57:38;9.40;99.90
10312;DHT22;5201;48.776;9.128;2022-11-13T17:00:06;9.50;99.90
10312;DHT22;5201;48.776;9.128;2022-11-13T17:02:32;9.60;99.90
10312;DHT22;5201;48.776;9.128;2022-11-13T17:04:58;9.60;99.90
10312;DHT22;5201;48.776;9.128;2022-11-13T17:07:23;9.60;99.90
10312;DHT22;5201;48.776;9.128;2022-11-13T17:09:49;9.60;99.90
10312;DHT22;5201;48.776;9.128;2022-11-13T17:12:14;9.50;99.90
10312;DHT22;5201;48.776;9.128;2022-11-13T17:14:40;9.20;99.90
10312;DHT22;5201;48.776;9.128;2022-11-13T17:17:10;9.30;99.90
10312;DHT22;5201;48.776;9.128;2022-11-13T17:19:36;9.30;99.90
10312;DHT22;5201;48.776;9.128;2022-11-13T17:22:11;9.20;99.90
10312;DHT22;5201;48.776;9.128;2022-11-13T17:24:37;9.30;99.90
10312;DHT22;5201;48.776;9.128;2022-11-13T17:27:03;9.30;99.90
10312;DHT22;5201;48.776;9.128;2022-11-13T17:29:29;10.30;99.90